Time;durP1;ratioP1;P1;durP2;ratioP2;P2;SDS_P1;SDS_P2;PMS_P1;PMS_P2;Temp;Humidity;BMP_temperature;BMP_pressure;BME280_temperature;BME280_humidity;BME280_pressure;Samples;Min_cycle;Max_cycle;Signal;HPM_P1;HPM_P2
2022/12/02 00:02:34;;;;;;;1999.90;999.90;;;5.80;99.90;;;;;;5088880;28;20044;-76
2022/12/02 00:05:15;;;;;;;1999.90;999.90;;;5.80;99.90;;;;;;5074332;28;20412;-76
2022/12/02 00:07:41;;;;;;;1999.90;999.90;;;5.80;99.90;;;;;;5073609;28;20025;-76
2022/12/02 00:10:31;;;;;;;1999.90;999.90;;;5.90;99.90;;;;;;5073169;28;20515;-78
2022/12/02 00:13:12;;;;;;;1999.90;999.90;;;5.90;99.90;;;;;;5074808;28;20111;-76
2022/12/02 00:15:43;;;;;;;1999.90;999.90;;;5.90;99.90;;;;;;5072904;28;20533;-77
2022/12/02 00:18:13;;;;;;;1999.90;999.90;;;5.90;99.90;;;;;;5068707;28;20021;-75
2022/12/02 00:20:39;;;;;;;1999.90;999.90;;;5.90;99.90;;;;;;5074084;28;20102;-75
2022/12/02 00:23:05;;;;;;;1999.90;999.90;;;5.90;99.90;;;;;;5072468;28;20031;-75
2022/12/02 00:25:31;;;;;;;1999.90;999.90;;;5.90;99.90;;;;;;5073660;28;20017;-77
2022/12/02 00:27:57;;;;;;;1999.90;999.90;;;5.80;99.90;;;;;;5074078;28;20024;-76
2022/12/02 00:30:23;;;;;;;1999.90;999.90;;;5.80;99.90;;;;;;5073967;28;20025;-76
2022/12/02 00:32:48;;;;;;;1999.90;999.90;;;5.90;99.90;;;;;;5074045;28;20364;-77
2022/12/02 00:35:15;;;;;;;1999.90;999.90;;;5.80;99.90;;;;;;5072676;28;20025;-76
2022/12/02 00:37:41;;;;;;;1999.90;999.90;;;5.80;99.90;;;;;;5074105;28;20029;-76
2022/12/02 00:40:08;;;;;;;1999.90;999.90;;;5.80;99.90;;;;;;5066889;28;20161;-76
2022/12/02 00:42:33;;;;;;;1999.90;999.90;;;5.80;99.90;;;;;;5052790;28;20037;-75
2022/12/02 00:47:44;;;;;;;1999.90;999.90;;;5.80;99.90;;;;;;5094119;28;20039;-76
2022/12/02 00:50:10;;;;;;;1999.90;999.90;;;5.80;99.90;;;;;;5093716;28;20445;-77
2022/12/02 00:52:36;;;;;;;1999.90;999.90;;;5.80;99.90;;;;;;5094259;28;20050;-75
2022/12/02 00:55:02;;;;;;;1999.90;999.90;;;5.70;99.90;;;;;;5093491;28;20024;-77
2022/12/02 00:57:27;;;;;;;1999.90;999.90;;;5.70;99.90;;;;;;5093735;28;20028;-77
2022/12/02 00:59:53;;;;;;;1999.90;999.90;;;5.80;99.90;;;;;;5092317;28;20016;-75
2022/12/02 01:02:19;;;;;;;1999.90;999.90;;;5.80;99.90;;;;;;5088872;28;20464;-77
2022/12/02 01:04:44;;;;;;;1999.90;999.90;;;5.80;99.90;;;;;;5073155;28;20040;-77
2022/12/02 01:07:10;;;;;;;1999.90;999.90;;;5.80;99.90;;;;;;5072720;28;20025;-76
2022/12/02 01:09:36;;;;;;;1999.90;999.90;;;5.80;99.90;;;;;;5073088;28;20522;-77
2022/12/02 01:12:01;;;;;;;1999.90;999.90;;;5.80;99.90;;;;;;5073071;28;20082;-77
2022/12/02 01:14:27;;;;;;;1999.90;999.90;;;5.80;99.90;;;;;;5072958;28;20032;-76
2022/12/02 01:16:53;;;;;;;1999.90;999.90;;;5.90;99.90;;;;;;5071914;28;20176;-77
2022/12/02 01:19:19;;;;;;;1999.90;999.90;;;5.90;99.90;;;;;;5066584;28;20055;-77
2022/12/02 01:21:44;;;;;;;1999.90;999.90;;;5.90;99.90;;;;;;5073686;28;20100;-78
2022/12/02 01:24:10;;;;;;;1999.90;999.90;;;5.90;99.90;;;;;;5072949;28;20031;-77
2022/12/02 01:26:36;;;;;;;1999.90;999.90;;;5.80;99.90;;;;;;5072673;28;20427;-77
2022/12/02 01:29:02;;;;;;;1999.90;999.90;;;5.90;99.90;;;;;;5072666;28;20551;-77
2022/12/02 01:31:28;;;;;;;1999.90;999.90;;;5.80;99.90;;;;;;5071558;28;20429;-77
2022/12/02 01:33:53;;;;;;;1999.90;999.90;;;5.80;99.90;;;;;;5073040;28;20020;-77
2022/12/02 01:36:19;;;;;;;1999.90;999.90;;;5.80;99.90;;;;;;5072935;28;20056;-77
2022/12/02 01:38:45;;;;;;;1999.90;999.90;;;5.80;99.90;;;;;;5072573;28;20444;-77
2022/12/02 01:41:11;;;;;;;1999.90;999.90;;;5.80;99.90;;;;;;5067587;28;20119;-78
2022/12/02 01:43:36;;;;;;;1999.90;999.90;;;5.80;99.90;;;;;;5050687;28;20107;-78
2022/12/02 01:46:02;;;;;;;1999.90;999.90;;;5.80;99.90;;;;;;5089548;28;20025;-76
2022/12/02 01:48:29;;;;;;;1999.90;999.90;;;5.80;99.90;;;;;;5092720;28;20479;-78
2022/12/02 01:50:58;;;;;;;1999.90;999.90;;;5.90;99.90;;;;;;5092835;28;20043;-77
2022/12/02 01:53:23;;;;;;;1999.90;999.90;;;5.80;99.90;;;;;;5092809;28;20032;-76
2022/12/02 01:55:49;;;;;;;1999.90;999.90;;;5.80;99.90;;;;;;5091457;28;20050;-77
2022/12/02 01:58:16;;;;;;;1999.90;999.90;;;5.90;99.90;;;;;;5092631;28;20044;-77
2022/12/02 02:00:42;;;;;;;1999.90;999.90;;;5.90;99.90;;;;;;5091454;28;20035;-77
2022/12/02 02:03:08;;;;;;;1999.90;999.90;;;5.90;99.90;;;;;;5075524;28;20041;-77
2022/12/02 02:05:34;;;;;;;1999.90;999.90;;;5.90;99.90;;;;;;5072740;28;20391;-76
2022/12/02 02:08:05;;;;;;;1999.90;999.90;;;5.90;99.90;;;;;;5071319;28;20437;-77
2022/12/02 02:10:32;;;;;;;1999.90;999.90;;;5.90;99.90;;;;;;5072074;28;20036;-76
2022/12/02 02:12:58;;;;;;;1999.90;999.90;;;5.90;99.90;;;;;;5072045;28;20039;-76
2022/12/02 02:15:24;;;;;;;1999.90;999.90;;;5.90;99.90;;;;;;5071126;28;20032;-77
2022/12/02 02:17:50;;;;;;;1999.90;999.90;;;5.90;99.90;;;;;;5072750;28;20048;-77
2022/12/02 02:20:22;;;;;;;1999.90;999.90;;;5.80;99.90;;;;;;5073192;28;20041;-77
2022/12/02 02:22:56;;;;;;;1999.90;999.90;;;5.80;99.90;;;;;;5075981;28;20025;-75
2022/12/02 02:25:21;;;;;;;1999.90;999.90;;;5.70;99.90;;;;;;5075944;28;20016;-77
2022/12/02 02:27:55;;;;;;;1999.90;999.90;;;5.70;99.90;;;;;;5076245;28;20028;-76
2022/12/02 02:30:21;;;;;;;1999.90;999.90;;;5.70;99.90;;;;;;5076339;28;20530;-77
2022/12/02 02:32:48;;;;;;;1999.90;999.90;;;5.70;99.90;;;;;;5075991;28;20021;-78
2022/12/02 02:35:15;;;;;;;1999.90;999.90;;;5.70;99.90;;;;;;5076413;28;20456;-77
2022/12/02 02:37:41;;;;;;;1999.90;999.90;;;5.70;99.90;;;;;;5075051;28;20025;-77
2022/12/02 02:40:07;;;;;;;1999.90;999.90;;;5.70;99.90;;;;;;5072167;28;20021;-78
2022/12/02 02:42:33;;;;;;;1999.90;999.90;;;5.70;99.90;;;;;;5055602;28;20389;-76
2022/12/02 02:45:00;;;;;;;1999.90;999.90;;;5.70;99.90;;;;;;5074173;28;20032;-77
2022/12/02 02:47:26;;;;;;;1999.90;999.90;;;5.70;99.90;;;;;;5096011;28;20017;-76
2022/12/02 02:49:52;;;;;;;1999.90;999.90;;;5.70;99.90;;;;;;5096247;28;20031;-77
2022/12/02 02:52:17;;;;;;;1999.90;999.90;;;5.70;99.90;;;;;;5096602;28;20051;-77
2022/12/02 02:54:43;;;;;;;1999.90;999.90;;;5.70;99.90;;;;;;5095740;28;20097;-76
2022/12/02 02:57:09;;;;;;;1999.90;999.90;;;5.60;99.90;;;;;;5094258;28;20024;-76
2022/12/02 02:59:40;;;;;;;1999.90;999.90;;;5.70;99.90;;;;;;5128567;27;20039;-77
2022/12/02 03:02:08;;;;;;;1999.90;999.90;;;5.70;99.90;;;;;;5094271;28;20578;-76
2022/12/02 03:04:35;;;;;;;1999.90;999.90;;;5.70;99.90;;;;;;5075648;28;20048;-77
2022/12/02 03:07:01;;;;;;;1999.90;999.90;;;5.70;99.90;;;;;;5074055;28;20110;-75
2022/12/02 03:09:26;;;;;;;1999.90;999.90;;;5.60;99.90;;;;;;5073758;28;20024;-77
2022/12/02 03:11:55;;;;;;;1999.90;999.90;;;5.70;99.90;;;;;;5075606;28;20027;-76
2022/12/02 03:14:21;;;;;;;1999.90;999.90;;;5.70;99.90;;;;;;5073951;28;20491;-77
2022/12/02 03:16:48;;;;;;;1999.90;999.90;;;5.60;99.90;;;;;;5073948;28;20430;-77
2022/12/02 03:19:15;;;;;;;1999.90;999.90;;;5.60;99.90;;;;;;5074252;28;20036;-77
2022/12/02 03:21:41;;;;;;;1999.90;999.90;;;5.60;99.90;;;;;;5073867;28;20028;-77
2022/12/02 03:24:07;;;;;;;1999.90;999.90;;;5.70;99.90;;;;;;5075230;28;20012;-78
2022/12/02 03:26:33;;;;;;;1999.90;999.90;;;5.60;99.90;;;;;;5073541;28;20029;-76
2022/12/02 03:29:00;;;;;;;1999.90;999.90;;;5.60;99.90;;;;;;5074216;28;20108;-77
2022/12/02 03:31:26;;;;;;;1999.90;999.90;;;5.70;99.90;;;;;;5075154;28;20033;-75
2022/12/02 03:33:53;;;;;;;1999.90;999.90;;;5.70;99.90;;;;;;5075236;28;20024;-77
2022/12/02 03:36:19;;;;;;;1999.90;999.90;;;5.70;99.90;;;;;;5075030;28;20054;-77
2022/12/02 03:38:45;;;;;;;1999.90;999.90;;;5.70;99.90;;;;;;5074747;28;20080;-76
2022/12/02 03:41:11;;;;;;;1999.90;999.90;;;5.70;99.90;;;;;;5061252;28;20091;-77
2022/12/02 03:43:37;;;;;;;1999.90;999.90;;;5.70;99.90;;;;;;5055349;28;20017;-77
2022/12/02 03:46:05;;;;;;;1999.90;999.90;;;5.70;99.90;;;;;;5091644;28;20035;-77
2022/12/02 03:48:33;;;;;;;1999.90;999.90;;;5.70;99.90;;;;;;5095020;28;20028;-76
2022/12/02 03:50:59;;;;;;;1999.90;999.90;;;5.70;99.90;;;;;;5095107;28;20031;-77
2022/12/02 03:53:25;;;;;;;1999.90;999.90;;;5.70;99.90;;;;;;5095288;28;20435;-77
2022/12/02 03:55:50;;;;;;;1999.90;999.90;;;5.70;99.90;;;;;;5093604;28;20028;-77
2022/12/02 03:58:16;;;;;;;1999.90;999.90;;;5.70;99.90;;;;;;5093639;28;20095;-77
2022/12/02 04:00:42;;;;;;;1999.90;999.90;;;5.70;99.90;;;;;;5095142;28;20027;-77
2022/12/02 04:03:07;;;;;;;1999.90;999.90;;;5.70;99.90;;;;;;5084070;28;20457;-78
2022/12/02 04:05:33;;;;;;;1999.90;999.90;;;5.70;99.90;;;;;;5073326;28;20123;-76
2022/12/02 04:07:59;;;;;;;1999.90;999.90;;;5.70;99.90;;;;;;5074751;28;20032;-77
2022/12/02 04:10:24;;;;;;;1999.90;999.90;;;5.70;99.90;;;;;;5072865;28;20092;-75
2022/12/02 04:12:50;;;;;;;1999.90;999.90;;;5.70;99.90;;;;;;5074052;28;20024;-78
2022/12/02 04:15:16;;;;;;;1999.90;999.90;;;5.70;99.90;;;;;;5074567;28;20046;-77
2022/12/02 04:17:41;;;;;;;1999.90;999.90;;;5.70;99.90;;;;;;5071130;28;20028;-77
2022/12/02 04:20:11;;;;;;;1999.90;999.90;;;5.70;99.90;;;;;;5070917;28;20484;-77
2022/12/02 04:22:36;;;;;;;1999.90;999.90;;;5.70;99.90;;;;;;5072741;28;20032;-77
2022/12/02 04:25:03;;;;;;;1999.90;999.90;;;5.70;99.90;;;;;;5073453;28;20025;-77
2022/12/02 04:27:29;;;;;;;1999.90;999.90;;;5.70;99.90;;;;;;5073631;28;20055;-77
2022/12/02 04:29:55;;;;;;;1999.90;999.90;;;5.70;99.90;;;;;;5072686;28;20491;-77
2022/12/02 04:32:20;;;;;;;1999.90;999.90;;;5.70;99.90;;;;;;5074058;28;20020;-77
2022/12/02 04:34:49;;;;;;;1999.90;999.90;;;5.70;99.90;;;;;;5073876;28;20028;-77
2022/12/02 04:37:14;;;;;;;1999.90;999.90;;;5.70;99.90;;;;;;5073614;28;20020;-77
2022/12/02 04:39:40;;;;;;;1999.90;999.90;;;5.70;99.90;;;;;;5072667;28;20039;-77
2022/12/02 04:42:06;;;;;;;1999.90;999.90;;;5.70;99.90;;;;;;5052995;28;20017;-77
2022/12/02 04:44:31;;;;;;;1999.90;999.90;;;5.70;99.90;;;;;;5065179;28;20146;-77
2022/12/02 04:46:57;;;;;;;1999.90;999.90;;;5.70;99.90;;;;;;5093016;28;20437;-77
2022/12/02 04:49:22;;;;;;;1999.90;999.90;;;5.70;99.90;;;;;;5093674;28;20067;-77
2022/12/02 04:51:48;;;;;;;1999.90;999.90;;;5.70;99.90;;;;;;5126727;27;20115;-77
2022/12/02 04:54:14;;;;;;;1999.90;999.90;;;5.70;99.90;;;;;;5093500;28;20165;-77
2022/12/02 04:56:39;;;;;;;1999.90;999.90;;;5.70;99.90;;;;;;5093651;28;20507;-77
2022/12/02 04:59:05;;;;;;;1999.90;999.90;;;5.70;99.90;;;;;;5092016;28;20128;-77
2022/12/02 05:01:30;;;;;;;1999.90;999.90;;;5.70;99.90;;;;;;5093515;28;20095;-76
2022/12/02 05:03:56;;;;;;;1999.90;999.90;;;5.70;99.90;;;;;;5076005;28;20517;-77
2022/12/02 05:06:22;;;;;;;1999.90;999.90;;;5.70;99.90;;;;;;5073406;28;20025;-77
2022/12/02 05:08:47;;;;;;;1999.90;999.90;;;5.70;99.90;;;;;;5073017;28;20434;-77
2022/12/02 05:11:13;;;;;;;1999.90;999.90;;;5.70;99.90;;;;;;5071646;28;20036;-77
2022/12/02 05:13:38;;;;;;;1999.90;999.90;;;5.70;99.90;;;;;;5073379;28;20395;-77
2022/12/02 05:16:04;;;;;;;1999.90;999.90;;;5.70;99.90;;;;;;5073170;28;20028;-77
2022/12/02 05:18:30;;;;;;;1999.90;999.90;;;5.70;99.90;;;;;;5066138;28;20025;-75
2022/12/02 05:20:56;;;;;;;1999.90;999.90;;;5.70;99.90;;;;;;5073144;28;20027;-77
2022/12/02 05:23:21;;;;;;;1999.90;999.90;;;5.60;99.90;;;;;;5072793;28;20472;-77
2022/12/02 05:25:47;;;;;;;1999.90;999.90;;;5.70;99.90;;;;;;5073149;28;20024;-77
2022/12/02 05:28:13;;;;;;;1999.90;999.90;;;5.70;99.90;;;;;;5071616;28;20033;-77
2022/12/02 05:30:38;;;;;;;1999.90;999.90;;;5.70;99.90;;;;;;5072676;28;20487;-77
2022/12/02 05:33:04;;;;;;;1999.90;999.90;;;5.70;99.90;;;;;;5072945;28;20483;-78
2022/12/02 05:35:30;;;;;;;1999.90;999.90;;;5.70;99.90;;;;;;5072983;28;20036;-76
2022/12/02 05:37:55;;;;;;;1999.90;999.90;;;5.70;99.90;;;;;;5071754;28;20404;-77
2022/12/02 05:40:21;;;;;;;1999.90;999.90;;;5.70;99.90;;;;;;5067072;28;20024;-77
2022/12/02 05:42:46;;;;;;;1999.90;999.90;;;5.70;99.90;;;;;;5053091;28;20021;-77
2022/12/02 05:45:17;;;;;;;1999.90;999.90;;;5.70;99.90;;;;;;5075474;28;20024;-77
2022/12/02 05:47:46;;;;;;;1999.90;999.90;;;5.70;99.90;;;;;;5092250;28;20027;-77
2022/12/02 05:50:13;;;;;;;1999.90;999.90;;;5.70;99.90;;;;;;5092761;28;20548;-77
2022/12/02 05:52:39;;;;;;;1999.90;999.90;;;5.70;99.90;;;;;;5085508;28;20036;-74
2022/12/02 05:55:18;;;;;;;1999.90;999.90;;;5.70;99.90;;;;;;5072061;28;20132;-77
2022/12/02 05:57:44;;;;;;;1999.90;999.90;;;5.70;99.90;;;;;;5072456;28;20024;-77
2022/12/02 06:00:15;;;;;;;1999.90;999.90;;;5.60;99.90;;;;;;5070904;28;20480;-77
2022/12/02 06:02:44;;;;;;;1999.90;999.90;;;5.70;99.90;;;;;;5071835;28;20028;-79
2022/12/02 06:05:19;;;;;;;1999.90;999.90;;;5.70;99.90;;;;;;5070637;28;20020;-77
2022/12/02 06:07:46;;;;;;;1999.90;999.90;;;5.70;99.90;;;;;;5071417;28;20472;-77
2022/12/02 06:10:23;;;;;;;1999.90;999.90;;;5.60;99.90;;;;;;5072520;28;20009;-77
2022/12/02 06:12:51;;;;;;;1999.90;999.90;;;5.70;99.90;;;;;;5072072;28;20029;-75
2022/12/02 06:15:17;;;;;;;1999.90;999.90;;;5.70;99.90;;;;;;5071489;28;20432;-77
2022/12/02 06:17:43;;;;;;;1999.90;999.90;;;5.70;99.90;;;;;;5070890;28;20119;-77
2022/12/02 06:20:25;;;;;;;1999.90;999.90;;;5.70;99.90;;;;;;5071842;28;20032;-75
2022/12/02 06:22:50;;;;;;;1999.90;999.90;;;5.70;99.90;;;;;;5070493;28;20024;-77
2022/12/02 06:25:26;;;;;;;1999.90;999.90;;;5.70;99.90;;;;;;5071858;28;20031;-75
2022/12/02 06:27:54;;;;;;;1999.90;999.90;;;5.60;99.90;;;;;;5071999;28;20100;-75
2022/12/02 06:30:20;;;;;;;1999.90;999.90;;;5.60;99.90;;;;;;5070452;28;20124;-75
2022/12/02 06:32:54;;;;;;;1999.90;999.90;;;5.70;99.90;;;;;;5070471;28;20108;-77
2022/12/02 06:35:25;;;;;;;1999.90;999.90;;;5.70;99.90;;;;;;5069076;28;20115;-77
2022/12/02 06:38:01;;;;;;;1999.90;999.90;;;5.70;99.90;;;;;;5050586;28;20055;-77
2022/12/02 06:40:35;;;;;;;1999.90;999.90;;;5.70;99.90;;;;;;5050540;28;20561;-75
2022/12/02 06:43:11;;;;;;;1999.90;999.90;;;5.70;99.90;;;;;;5051940;28;20021;-76
2022/12/02 06:45:36;;;;;;;1999.90;999.90;;;5.70;99.90;;;;;;5080980;28;20519;-77
2022/12/02 06:48:31;;;;;;;1999.90;999.90;;;5.70;99.90;;;;;;5068766;28;20028;-74
2022/12/02 06:51:22;;;;;;;1999.90;999.90;;;5.70;99.90;;;;;;5065916;28;20032;-77
2022/12/02 06:53:48;;;;;;;1999.90;999.90;;;5.70;99.90;;;;;;5060798;28;20132;-75
2022/12/02 06:56:30;;;;;;;1999.90;999.90;;;5.80;99.90;;;;;;5089475;28;20559;-77
2022/12/02 06:58:59;;;;;;;1999.90;999.90;;;5.80;99.90;;;;;;5080320;28;20111;-75
2022/12/02 07:01:40;;;;;;;1999.90;999.90;;;5.80;99.90;;;;;;5069405;28;20036;-77
2022/12/02 07:04:08;;;;;;;1999.90;999.90;;;5.80;99.90;;;;;;5072133;28;20037;-77
2022/12/02 07:06:48;;;;;;;1999.90;999.90;;;5.80;99.90;;;;;;5070612;28;20029;-78
2022/12/02 07:09:27;;;;;;;1999.90;999.90;;;5.80;99.90;;;;;;5071081;28;20033;-75
2022/12/02 07:11:53;;;;;;;1999.90;999.90;;;5.80;99.90;;;;;;5083332;28;20031;-74
2022/12/02 07:14:30;;;;;;;1999.90;999.90;;;5.80;99.90;;;;;;5082161;28;20496;-78
2022/12/02 07:17:00;;;;;;;1999.90;999.90;;;5.80;99.90;;;;;;5072165;28;20104;-75
2022/12/02 07:19:42;;;;;;;1999.90;999.90;;;5.80;99.90;;;;;;5073955;28;20029;-77
2022/12/02 07:22:20;;;;;;;1999.90;999.90;;;5.80;99.90;;;;;;5074942;28;20040;-77
2022/12/02 07:25:07;;;;;;;1999.90;999.90;;;5.80;99.90;;;;;;5074005;28;20103;-78
2022/12/02 07:27:37;;;;;;;1999.90;999.90;;;5.80;99.90;;;;;;5074380;28;20041;-77
2022/12/02 07:30:17;;;;;;;1999.90;999.90;;;5.80;99.90;;;;;;5073202;28;20017;-74
2022/12/02 07:32:42;;;;;;;1999.90;999.90;;;5.80;99.90;;;;;;5068819;28;20028;-77
2022/12/02 07:35:08;;;;;;;1999.90;999.90;;;5.80;99.90;;;;;;5081045;28;20043;-77
2022/12/02 07:37:33;;;;;;;1999.90;999.90;;;5.80;99.90;;;;;;5073281;28;20032;-75
2022/12/02 07:39:59;;;;;;;1999.90;999.90;;;5.80;99.90;;;;;;5071665;28;20436;-77
2022/12/02 07:42:25;;;;;;;1999.90;999.90;;;5.80;99.90;;;;;;5090512;28;20471;-78
2022/12/02 07:44:50;;;;;;;1999.90;999.90;;;5.90;99.90;;;;;;5093422;28;20035;-77
2022/12/02 07:47:16;;;;;;;1999.90;999.90;;;5.80;99.90;;;;;;5095144;28;20397;-78
2022/12/02 07:49:42;;;;;;;1999.90;999.90;;;5.90;99.90;;;;;;5081923;28;20044;-78
2022/12/02 07:52:07;;;;;;;1999.90;999.90;;;5.90;99.90;;;;;;5089667;28;20039;-78
2022/12/02 07:54:33;;;;;;;1999.90;999.90;;;5.90;99.90;;;;;;5072195;28;20082;-75
2022/12/02 07:56:59;;;;;;;1999.90;999.90;;;5.90;99.90;;;;;;5080252;28;20027;-75
2022/12/02 07:59:24;;;;;;;1999.90;999.90;;;5.90;99.90;;;;;;5076395;28;20033;-75
2022/12/02 08:01:50;;;;;;;1999.90;999.90;;;5.90;99.90;;;;;;5080882;28;20024;-77
2022/12/02 08:04:15;;;;;;;1999.90;999.90;;;5.90;99.90;;;;;;5078854;28;20067;-77
2022/12/02 08:06:41;;;;;;;1999.90;999.90;;;5.90;99.90;;;;;;5072555;28;20552;-77
2022/12/02 08:09:08;;;;;;;1999.90;999.90;;;5.90;99.90;;;;;;5088834;28;20035;-77
2022/12/02 08:11:34;;;;;;;1999.90;999.90;;;5.90;99.90;;;;;;5077061;28;20052;-77
2022/12/02 08:13:59;;;;;;;1999.90;999.90;;;5.90;99.90;;;;;;5068844;28;20108;-76
2022/12/02 08:16:25;;;;;;;1999.90;999.90;;;5.90;99.90;;;;;;5071530;28;20036;-77
2022/12/02 08:18:50;;;;;;;1999.90;999.90;;;5.90;99.90;;;;;;5072780;28;20074;-77
2022/12/02 08:21:16;;;;;;;1999.90;999.90;;;6.00;99.90;;;;;;5071007;28;20020;-77
2022/12/02 08:23:42;;;;;;;1999.90;999.90;;;6.00;99.90;;;;;;5068407;28;20036;-75
2022/12/02 08:26:07;;;;;;;1999.90;999.90;;;6.00;99.90;;;;;;5069035;28;20100;-74
2022/12/02 08:28:33;;;;;;;1999.90;999.90;;;6.00;99.90;;;;;;5072244;28;20043;-79
2022/12/02 08:30:59;;;;;;;1999.90;999.90;;;6.00;99.90;;;;;;5072401;28;20056;-77
2022/12/02 08:33:24;;;;;;;1999.90;999.90;;;6.10;99.90;;;;;;5074045;28;20060;-76
2022/12/02 08:35:50;;;;;;;1999.90;999.90;;;6.10;99.90;;;;;;5074963;28;20040;-77
2022/12/02 08:38:16;;;;;;;1999.90;999.90;;;6.10;99.90;;;;;;5078196;28;20033;-75
2022/12/02 08:40:42;;;;;;;1999.90;999.90;;;6.10;99.90;;;;;;5073465;28;20027;-75
2022/12/02 08:43:08;;;;;;;1999.90;999.90;;;6.10;99.90;;;;;;5071851;28;20051;-75
2022/12/02 08:45:34;;;;;;;1999.90;999.90;;;6.20;99.90;;;;;;5071946;28;20617;-75
2022/12/02 08:47:59;;;;;;;1999.90;999.90;;;6.20;99.90;;;;;;5073332;28;20103;-75
2022/12/02 08:50:25;;;;;;;1999.90;999.90;;;6.20;99.90;;;;;;5068937;28;20494;-75
2022/12/02 08:52:51;;;;;;;1999.90;999.90;;;6.30;99.90;;;;;;5073915;28;20495;-77
2022/12/02 08:55:17;;;;;;;1999.90;999.90;;;6.30;99.90;;;;;;5070440;28;20087;-77
2022/12/02 08:57:42;;;;;;;1999.90;999.90;;;6.40;99.90;;;;;;5070552;28;20469;-77
2022/12/02 09:00:08;;;;;;;1999.90;999.90;;;6.40;99.90;;;;;;5074785;28;20024;-75
2022/12/02 09:02:35;;;;;;;1999.90;999.90;;;6.30;99.90;;;;;;5069510;28;20055;-75
2022/12/02 09:05:01;;;;;;;1999.90;999.90;;;6.30;99.90;;;;;;5070117;28;20549;-75
2022/12/02 09:07:27;;;;;;;1999.90;999.90;;;6.30;99.90;;;;;;5068586;28;20024;-77
2022/12/02 09:09:52;;;;;;;1999.90;999.90;;;6.30;99.90;;;;;;5070226;28;20399;-77
2022/12/02 09:12:18;;;;;;;1999.90;999.90;;;6.40;99.90;;;;;;5077779;28;20122;-77
2022/12/02 09:14:43;;;;;;;1999.90;999.90;;;6.40;99.90;;;;;;5070477;28;20395;-75
2022/12/02 09:17:09;;;;;;;1999.90;999.90;;;6.50;99.90;;;;;;5071140;28;20021;-75
2022/12/02 09:19:35;;;;;;;1999.90;999.90;;;6.60;99.90;;;;;;5068303;28;20115;-77
2022/12/02 09:22:00;;;;;;;1999.90;999.90;;;6.60;99.90;;;;;;5069470;28;20111;-75
2022/12/02 09:24:26;;;;;;;1999.90;999.90;;;6.50;99.90;;;;;;5078162;28;20024;-78
2022/12/02 09:26:52;;;;;;;1999.90;999.90;;;6.60;99.90;;;;;;5078651;28;20066;-75
2022/12/02 09:29:17;;;;;;;1999.90;999.90;;;6.60;99.90;;;;;;5066798;28;20029;-75
2022/12/02 09:31:43;;;;;;;1999.90;999.90;;;6.60;99.90;;;;;;5070673;28;20040;-75
2022/12/02 09:34:08;;;;;;;1999.90;999.90;;;6.70;99.90;;;;;;5069596;28;20039;-75
2022/12/02 09:36:34;;;;;;;1999.90;999.90;;;6.70;99.90;;;;;;5068551;28;20114;-77
2022/12/02 09:39:00;;;;;;;1999.90;999.90;;;6.70;99.90;;;;;;5067407;28;20028;-75
2022/12/02 09:41:26;;;;;;;1999.90;999.90;;;6.70;99.90;;;;;;5068632;28;20029;-79
2022/12/02 09:43:52;;;;;;;1999.90;999.90;;;6.70;99.90;;;;;;5066024;28;20086;-76
2022/12/02 09:46:18;;;;;;;1999.90;999.90;;;6.70;99.90;;;;;;5066969;28;20458;-77
2022/12/02 09:48:44;;;;;;;1999.90;999.90;;;6.70;99.90;;;;;;5068632;28;20062;-77
2022/12/02 09:51:12;;;;;;;1999.90;999.90;;;6.70;99.90;;;;;;5071743;28;20378;-77
2022/12/02 09:53:39;;;;;;;1999.90;999.90;;;6.80;99.90;;;;;;5070434;28;20100;-74
2022/12/02 09:56:14;;;;;;;1999.90;999.90;;;6.80;99.90;;;;;;5071072;28;20474;-77
2022/12/02 09:58:40;;;;;;;1999.90;999.90;;;6.90;99.90;;;;;;5071144;28;20060;-76
2022/12/02 10:01:13;;;;;;;1999.90;999.90;;;7.00;99.90;;;;;;5069181;28;20127;-77
2022/12/02 10:03:40;;;;;;;1999.90;999.90;;;7.20;99.90;;;;;;5069927;28;20098;-77
2022/12/02 10:06:22;;;;;;;1999.90;999.90;;;7.10;99.90;;;;;;5071019;28;20029;-74
2022/12/02 10:08:48;;;;;;;1999.90;999.90;;;7.20;99.90;;;;;;5079167;28;20035;-77
2022/12/02 10:11:21;;;;;;;1999.90;999.90;;;7.20;99.90;;;;;;5080334;28;20033;-77
2022/12/02 10:13:47;;;;;;;1999.90;999.90;;;7.20;99.90;;;;;;5083157;28;20028;-77
2022/12/02 10:16:14;;;;;;;1999.90;999.90;;;7.20;99.90;;;;;;5073538;28;20068;-77
2022/12/02 10:18:41;;;;;;;1999.90;999.90;;;7.10;99.90;;;;;;5082938;28;20082;-79
2022/12/02 10:21:06;;;;;;;1999.90;999.90;;;7.20;99.90;;;;;;5069210;28;20025;-80
2022/12/02 10:23:32;;;;;;;1999.90;999.90;;;7.10;99.90;;;;;;5081305;28;20403;-80
2022/12/02 10:26:11;;;;;;;1999.90;999.90;;;7.10;99.90;;;;;;5074702;28;20043;-79
2022/12/02 10:28:38;;;;;;;1999.90;999.90;;;7.10;99.90;;;;;;5069984;28;20032;-79
2022/12/02 10:31:13;;;;;;;1999.90;999.90;;;7.00;99.90;;;;;;5070316;28;20119;-77
2022/12/02 10:33:56;;;;;;;1999.90;999.90;;;7.00;99.90;;;;;;5072616;28;20024;-79
2022/12/02 10:36:34;;;;;;;1999.90;999.90;;;7.00;99.90;;;;;;5074902;28;20028;-77
2022/12/02 10:39:24;;;;;;;1999.90;999.90;;;6.90;99.90;;;;;;5071768;28;20029;-79
2022/12/02 10:42:19;;;;;;;1999.90;999.90;;;7.00;99.90;;;;;;5080423;28;20029;-79
2022/12/02 10:44:45;;;;;;;1999.90;999.90;;;7.00;99.90;;;;;;5071203;28;20028;-78
2022/12/02 10:47:21;;;;;;;1999.90;999.90;;;6.90;99.90;;;;;;5077977;28;20400;-75
2022/12/02 10:49:52;;;;;;;1999.90;999.90;;;7.00;99.90;;;;;;5071756;28;20654;-75
2022/12/02 10:52:22;;;;;;;1999.90;999.90;;;7.00;99.90;;;;;;5071650;28;20032;-77
2022/12/02 10:54:50;;;;;;;1999.90;999.90;;;7.10;99.90;;;;;;5072401;28;20730;-77
2022/12/02 10:57:28;;;;;;;1999.90;999.90;;;7.00;99.90;;;;;;5072161;28;20029;-75
2022/12/02 10:59:57;;;;;;;1999.90;999.90;;;7.00;99.90;;;;;;5068583;28;20530;-75
2022/12/02 11:02:33;;;;;;;1999.90;999.90;;;7.00;99.90;;;;;;5077208;28;20032;-75
2022/12/02 11:05:05;;;;;;;1999.90;999.90;;;6.90;99.90;;;;;;5072302;28;20082;-75
2022/12/02 11:07:31;;;;;;;1999.90;999.90;;;6.90;99.90;;;;;;5078208;28;20120;-78
2022/12/02 11:09:56;;;;;;;1999.90;999.90;;;6.90;99.90;;;;;;5078525;28;20107;-74
2022/12/02 11:12:59;;;;;;;1999.90;999.90;;;6.90;99.90;;;;;;5074679;28;20086;-75
2022/12/02 11:15:47;;;;;;;1999.90;999.90;;;6.90;99.90;;;;;;5071532;28;20155;-77
2022/12/02 11:18:21;;;;;;;1999.90;999.90;;;7.00;99.90;;;;;;5070833;28;20094;-77
2022/12/02 11:20:51;;;;;;;1999.90;999.90;;;7.00;99.90;;;;;;5078838;28;20448;-77
2022/12/02 11:23:29;;;;;;;1999.90;999.90;;;7.10;99.90;;;;;;5072099;28;20047;-75
2022/12/02 11:26:09;;;;;;;1999.90;999.90;;;7.10;99.90;;;;;;5071403;28;20027;-77
2022/12/02 11:28:38;;;;;;;1999.90;999.90;;;7.00;99.90;;;;;;5067328;28;20028;-77
2022/12/02 11:31:09;;;;;;;1999.90;999.90;;;7.00;99.90;;;;;;5091947;28;20097;-79
2022/12/02 11:33:50;;;;;;;1999.90;999.90;;;7.00;99.90;;;;;;5076169;28;20021;-79
2022/12/02 11:36:23;;;;;;;1999.90;999.90;;;7.00;99.90;;;;;;5079505;28;20024;-77
2022/12/02 11:38:52;;;;;;;1999.90;999.90;;;6.90;99.90;;;;;;5078385;28;20086;-77
2022/12/02 11:41:25;;;;;;;1999.90;999.90;;;6.90;99.90;;;;;;5077003;28;20031;-75
2022/12/02 11:44:20;;;;;;;1999.90;999.90;;;7.00;99.90;;;;;;5074133;28;20095;-77
2022/12/02 11:47:02;;;;;;;1999.90;999.90;;;7.10;99.90;;;;;;5069706;28;20047;-77
2022/12/02 11:49:39;;;;;;;1999.90;999.90;;;7.10;99.90;;;;;;5071578;28;20521;-75
2022/12/02 11:52:23;;;;;;;1999.90;999.90;;;7.20;99.90;;;;;;5074204;28;20031;-77
2022/12/02 11:54:58;;;;;;;1999.90;999.90;;;7.10;99.90;;;;;;5077479;28;20034;-77
2022/12/02 11:57:29;;;;;;;1999.90;999.90;;;7.10;99.90;;;;;;5076672;28;20441;-78
2022/12/02 12:00:22;;;;;;;1999.90;999.90;;;7.20;99.90;;;;;;5070715;28;20378;-79
2022/12/02 12:03:11;;;;;;;1999.90;999.90;;;7.20;99.90;;;;;;5075054;28;20075;-75
2022/12/02 12:05:38;;;;;;;1999.90;999.90;;;7.20;99.90;;;;;;5078629;28;20038;-77
2022/12/02 12:08:04;;;;;;;1999.90;999.90;;;7.20;99.90;;;;;;5074784;28;20024;-77
2022/12/02 12:10:30;;;;;;;1999.90;999.90;;;7.30;99.90;;;;;;5070664;28;20034;-75
2022/12/02 12:13:21;;;;;;;1999.90;999.90;;;7.30;99.90;;;;;;5079688;28;20057;-77
2022/12/02 12:15:54;;;;;;;1999.90;999.90;;;7.30;99.90;;;;;;5092803;28;20016;-75
2022/12/02 12:18:46;;;;;;;1999.90;999.90;;;7.30;99.90;;;;;;5098751;28;20048;-75
2022/12/02 12:21:31;;;;;;;1999.90;999.90;;;7.20;99.90;;;;;;5094331;28;20024;-78